createdAt,value
2023-09-12T00:00:01.626Z,18.99
2023-09-12T00:02:39.890Z,18.96
2023-09-12T00:05:08.885Z,18.93
2023-09-12T00:07:37.207Z,18.91
2023-09-12T00:10:07.347Z,18.88
2023-09-12T00:12:35.128Z,18.86
2023-09-12T00:15:05.467Z,18.83
2023-09-12T00:17:33.334Z,18.81
2023-09-12T00:20:01.124Z,18.80
2023-09-12T00:22:28.873Z,18.78
2023-09-12T00:24:56.633Z,18.75
2023-09-12T00:27:25.753Z,18.72
2023-09-12T00:29:53.640Z,18.69
2023-09-12T00:32:21.404Z,18.67
2023-09-12T00:34:49.185Z,18.65
2023-09-12T00:37:16.964Z,18.63
2023-09-12T00:39:44.814Z,18.62
2023-09-12T00:42:12.652Z,18.60
2023-09-12T00:44:41.768Z,18.59
2023-09-12T00:47:12.126Z,18.57
2023-09-12T00:49:41.492Z,18.54
2023-09-12T00:52:10.121Z,18.51
2023-09-12T00:54:37.938Z,18.49
2023-09-12T00:57:06.053Z,18.46
2023-09-12T00:59:34.452Z,18.45
2023-09-12T01:02:04.028Z,18.43
2023-09-12T01:04:35.314Z,18.44
2023-09-12T01:07:05.024Z,18.39
2023-09-12T01:09:33.105Z,18.35
2023-09-12T01:12:01.761Z,18.28
2023-09-12T01:14:32.968Z,18.26
2023-09-12T01:17:02.260Z,18.23
2023-09-12T01:19:31.620Z,18.21
2023-09-12T01:22:29.832Z,18.19
2023-09-12T01:25:36.160Z,18.16
2023-09-12T01:28:08.082Z,18.13
2023-09-12T01:30:37.736Z,18.11
2023-09-12T01:33:06.588Z,18.10
2023-09-12T01:35:34.591Z,18.06
2023-09-12T01:38:02.679Z,18.05
2023-09-12T01:40:36.776Z,18.02
2023-09-12T01:43:07.062Z,18.01
2023-09-12T01:45:35.433Z,18.00
2023-09-12T01:48:05.088Z,17.97
2023-09-12T01:50:33.513Z,17.95
2023-09-12T01:53:02.175Z,17.91
2023-09-12T01:55:30.925Z,17.90
2023-09-12T01:57:59.131Z,17.89
2023-09-12T02:00:28.595Z,17.88
2023-09-12T02:02:56.880Z,17.86
2023-09-12T02:05:24.764Z,17.83
2023-09-12T02:07:52.670Z,17.82
2023-09-12T02:10:20.593Z,17.79
2023-09-12T02:12:48.361Z,17.79
2023-09-12T02:15:16.711Z,17.78
2023-09-12T02:17:46.056Z,17.75
2023-09-12T02:20:13.862Z,17.72
2023-09-12T02:22:41.774Z,17.69
2023-09-12T02:25:10.248Z,17.60
2023-09-12T02:27:38.285Z,17.52
2023-09-12T02:30:07.621Z,17.50
2023-09-12T02:32:35.778Z,17.47
2023-09-12T02:35:05.493Z,17.46
2023-09-12T02:37:33.258Z,17.45
2023-09-12T02:40:01.362Z,17.45
2023-09-12T02:42:29.109Z,17.44
2023-09-12T02:44:56.927Z,17.43
2023-09-12T02:47:24.769Z,17.43
2023-09-12T02:49:52.529Z,17.43
2023-09-12T02:52:21.790Z,17.43
2023-09-12T02:54:49.752Z,17.41
2023-09-12T02:57:17.858Z,17.40
2023-09-12T02:59:46.523Z,17.39
2023-09-12T03:02:14.296Z,17.37
2023-09-12T03:04:42.260Z,17.37
2023-09-12T03:07:09.985Z,17.34
2023-09-12T03:09:39.639Z,17.31
2023-09-12T03:12:08.011Z,17.31
2023-09-12T03:14:36.541Z,17.30
2023-09-12T03:17:04.956Z,17.28
2023-09-12T03:19:34.101Z,17.28
2023-09-12T03:22:01.913Z,17.26
2023-09-12T03:24:30.373Z,17.24
2023-09-12T03:26:59.592Z,17.23
2023-09-12T03:29:27.696Z,17.19
2023-09-12T03:31:55.663Z,17.18
2023-09-12T03:34:23.700Z,17.16
2023-09-12T03:36:51.601Z,17.15
2023-09-12T03:39:19.543Z,17.14
2023-09-12T03:41:47.419Z,17.13
2023-09-12T03:44:16.638Z,17.12
2023-09-12T03:46:44.734Z,17.12
2023-09-12T03:49:13.492Z,17.10
2023-09-12T03:51:41.640Z,17.08
2023-09-12T03:54:09.533Z,17.10
2023-09-12T03:56:37.434Z,17.10
2023-09-12T03:59:05.311Z,17.08
2023-09-12T04:01:34.652Z,17.07
2023-09-12T04:04:04.525Z,17.06
2023-09-12T04:06:32.654Z,17.04
2023-09-12T04:09:00.446Z,17.03
2023-09-12T04:11:43.862Z,17.01
2023-09-12T04:14:13.943Z,16.97
2023-09-12T04:16:43.188Z,16.96
2023-09-12T04:19:11.084Z,16.94
2023-09-12T04:21:39.582Z,16.93
2023-09-12T04:24:08.521Z,16.93
2023-09-12T04:26:37.073Z,16.93
2023-09-12T04:29:04.953Z,16.92
2023-09-12T04:31:35.737Z,16.91
2023-09-12T04:34:05.270Z,16.89
2023-09-12T04:36:33.114Z,16.90
2023-09-12T04:39:01.488Z,16.91
2023-09-12T04:41:29.374Z,16.89
2023-09-12T04:43:58.159Z,16.88
2023-09-12T04:46:25.981Z,16.89
2023-09-12T04:48:53.875Z,16.90
2023-09-12T04:51:23.166Z,16.88
2023-09-12T04:53:52.927Z,16.88
2023-09-12T04:56:21.389Z,16.89
2023-09-12T04:58:49.480Z,16.89
2023-09-12T05:01:17.535Z,16.89
2023-09-12T05:03:45.484Z,16.88
2023-09-12T05:06:14.441Z,16.88
2023-09-12T05:08:44.445Z,16.89
2023-09-12T05:11:12.657Z,16.90
2023-09-12T05:13:40.984Z,16.90
2023-09-12T05:16:08.859Z,16.90
2023-09-12T05:18:36.704Z,16.91
2023-09-12T05:21:04.889Z,16.91
2023-09-12T05:23:33.060Z,16.95
2023-09-12T05:26:02.688Z,16.94
2023-09-12T05:28:30.520Z,16.98
2023-09-12T05:30:58.541Z,17.01
2023-09-12T05:33:26.817Z,17.02
2023-09-12T05:35:55.441Z,17.06
2023-09-12T05:38:24.061Z,17.07
2023-09-12T05:40:52.025Z,17.08
2023-09-12T05:43:21.525Z,17.11
2023-09-12T05:45:49.708Z,17.14
2023-09-12T05:48:17.653Z,17.17
2023-09-12T05:50:45.658Z,17.23
2023-09-12T05:53:13.533Z,17.29
2023-09-12T05:55:41.246Z,17.33
2023-09-12T05:58:09.031Z,17.41
2023-09-12T06:00:39.060Z,17.52
2023-09-12T06:03:06.956Z,17.58
2023-09-12T06:05:34.801Z,17.69
2023-09-12T06:08:03.139Z,17.76
2023-09-12T06:10:30.945Z,17.84
2023-09-12T06:12:58.706Z,17.92
2023-09-12T06:15:26.820Z,18.00
2023-09-12T06:17:56.218Z,18.07
2023-09-12T06:20:24.522Z,18.15
2023-09-12T06:22:52.588Z,18.20
2023-09-12T06:25:20.498Z,18.28
2023-09-12T06:27:48.442Z,18.36
2023-09-12T06:30:16.560Z,18.45
2023-09-12T06:32:44.309Z,18.52
2023-09-12T06:35:13.662Z,18.61
2023-09-12T06:37:41.400Z,18.68
2023-09-12T06:40:10.171Z,18.74
2023-09-12T06:42:37.986Z,18.83
2023-09-12T06:45:06.347Z,18.90
2023-09-12T06:47:34.106Z,18.98
2023-09-12T06:50:01.950Z,19.05
2023-09-12T06:52:31.002Z,19.12
2023-09-12T06:54:59.696Z,19.20
2023-09-12T06:57:27.476Z,19.26
2023-09-12T06:59:55.232Z,19.34
2023-09-12T07:02:23.018Z,19.41
2023-09-12T07:04:50.795Z,19.48
2023-09-12T07:07:18.565Z,19.57
2023-09-12T07:09:48.405Z,19.63
2023-09-12T07:12:16.193Z,19.73
2023-09-12T07:14:43.927Z,19.80
2023-09-12T07:17:11.661Z,19.86
2023-09-12T07:19:39.715Z,19.93
2023-09-12T07:22:07.454Z,20.01
2023-09-12T07:24:35.197Z,20.09
2023-09-12T07:27:04.402Z,20.17
2023-09-12T07:29:32.132Z,20.25
2023-09-12T07:32:01.278Z,20.30
2023-09-12T07:34:29.314Z,20.40
2023-09-12T07:36:57.054Z,20.47
2023-09-12T07:39:24.868Z,20.59
2023-09-12T07:41:52.696Z,20.69
2023-09-12T07:44:22.147Z,20.78
2023-09-12T07:46:49.958Z,20.90
2023-09-12T07:49:17.784Z,21.03
2023-09-12T07:51:45.567Z,21.19
2023-09-12T07:54:13.435Z,21.35
2023-09-12T07:56:44.047Z,21.51
2023-09-12T07:59:13.300Z,21.65
2023-09-12T08:01:42.596Z,21.79
2023-09-12T08:04:10.411Z,21.91
2023-09-12T08:06:55.324Z,21.97
2023-09-12T08:09:25.581Z,22.04
2023-09-12T08:11:53.343Z,22.10
2023-09-12T08:14:22.403Z,22.18
2023-09-12T08:16:51.574Z,22.27
2023-09-12T08:19:20.015Z,22.39
2023-09-12T08:21:48.106Z,22.52
2023-09-12T08:24:15.980Z,22.64
2023-09-12T08:26:46.202Z,22.78
2023-09-12T08:29:13.954Z,22.89
2023-09-12T08:31:41.706Z,23.03
2023-09-12T08:34:10.924Z,23.15
2023-09-12T08:36:38.685Z,23.29
2023-09-12T08:39:09.379Z,23.43
2023-09-12T08:41:37.292Z,23.54
2023-09-12T08:44:06.913Z,23.67
2023-09-12T08:46:34.716Z,23.77
2023-09-12T08:49:03.922Z,23.90
2023-09-12T08:51:33.434Z,24.05
2023-09-12T08:54:01.870Z,24.17
2023-09-12T08:56:29.943Z,24.33
2023-09-12T08:58:58.173Z,24.47
2023-09-12T09:01:28.841Z,24.61
2023-09-12T09:03:57.197Z,24.76
2023-09-12T09:06:29.014Z,24.90
2023-09-12T09:08:58.610Z,25.04
2023-09-12T09:11:28.720Z,25.13
2023-09-12T09:13:57.263Z,25.19
2023-09-12T09:16:25.531Z,25.30
2023-09-12T09:18:59.210Z,25.38
2023-09-12T09:21:28.913Z,25.46
2023-09-12T09:23:59.998Z,25.56
2023-09-12T09:26:41.802Z,25.68
2023-09-12T09:29:11.721Z,25.81
2023-09-12T09:31:43.225Z,25.93
2023-09-12T09:34:17.298Z,26.04
2023-09-12T09:36:50.560Z,26.13
2023-09-12T09:39:20.354Z,26.24
2023-09-12T09:41:49.869Z,26.35
2023-09-12T09:44:17.804Z,26.45
2023-09-12T09:46:46.390Z,26.57
2023-09-12T09:49:16.671Z,26.69
2023-09-12T09:51:47.255Z,26.74
2023-09-12T09:54:15.886Z,26.79
2023-09-12T09:56:49.614Z,26.82
2023-09-12T09:59:18.358Z,26.98
2023-09-12T10:01:47.213Z,27.17
2023-09-12T10:04:15.814Z,27.27
2023-09-12T10:06:46.484Z,27.43
2023-09-12T10:09:16.316Z,27.58
2023-09-12T10:11:48.345Z,27.76
2023-09-12T10:14:20.435Z,28.01
2023-09-12T10:16:50.221Z,28.25
2023-09-12T10:19:22.797Z,28.44
2023-09-12T10:21:56.320Z,28.50
2023-09-12T10:24:28.116Z,28.48
2023-09-12T10:26:57.136Z,28.47
2023-09-12T10:29:26.365Z,28.47
2023-09-12T10:31:54.193Z,28.46
2023-09-12T10:34:24.089Z,28.45
2023-09-12T10:36:53.331Z,28.37
2023-09-12T10:39:23.126Z,28.24
2023-09-12T10:41:53.811Z,28.16
2023-09-12T10:44:23.610Z,28.15
2023-09-12T10:46:56.638Z,28.15
2023-09-12T10:49:27.744Z,28.17
2023-09-12T10:51:57.088Z,28.16
2023-09-12T10:54:26.546Z,28.18
2023-09-12T10:57:07.243Z,28.22
2023-09-12T10:59:36.722Z,28.30
2023-09-12T11:02:36.348Z,28.41
2023-09-12T11:05:06.523Z,28.42
2023-09-12T11:07:45.443Z,28.43
2023-09-12T11:10:21.003Z,28.59
2023-09-12T11:12:51.169Z,28.88
2023-09-12T11:15:20.498Z,29.07
2023-09-12T11:17:50.903Z,29.37
2023-09-12T11:20:19.621Z,29.66
2023-09-12T11:22:49.404Z,29.93
2023-09-12T11:25:23.826Z,30.17
2023-09-12T11:28:07.460Z,30.38
2023-09-12T11:30:35.947Z,30.60
2023-09-12T11:33:08.043Z,30.79
2023-09-12T11:35:41.945Z,30.85
2023-09-12T11:38:12.502Z,30.69
2023-09-12T11:40:47.714Z,30.58
2023-09-12T11:43:26.514Z,30.56
2023-09-12T11:45:56.329Z,30.67
2023-09-12T11:48:25.724Z,30.73
2023-09-12T11:50:55.434Z,30.75
2023-09-12T11:53:26.499Z,30.85
2023-09-12T11:55:58.730Z,30.83
2023-09-12T11:58:28.270Z,30.71
2023-09-12T12:00:57.622Z,30.69
2023-09-12T12:03:28.656Z,30.66
2023-09-12T12:05:57.922Z,30.76
2023-09-12T12:10:57.385Z,30.79
2023-09-12T12:13:25.213Z,30.77
2023-09-12T12:15:53.139Z,30.78
2023-09-12T12:18:21.327Z,30.83
2023-09-12T12:20:50.571Z,30.99
2023-09-12T12:23:18.342Z,31.29
2023-09-12T12:25:46.108Z,31.55
2023-09-12T12:28:14.019Z,31.73
2023-09-12T12:30:42.067Z,31.94
2023-09-12T12:33:52.027Z,31.99
2023-09-12T12:36:04.230Z,32.22
2023-09-12T12:38:36.605Z,32.45
2023-09-12T12:41:05.672Z,32.73
2023-09-12T12:43:33.610Z,32.94
2023-09-12T12:46:01.402Z,33.18
2023-09-12T12:48:33.256Z,33.34
2023-09-12T12:51:14.234Z,33.46
2023-09-12T12:53:52.320Z,33.36
2023-09-12T12:56:23.737Z,33.37
2023-09-12T12:58:53.026Z,33.45
2023-09-12T13:01:21.192Z,33.59
2023-09-12T13:03:51.170Z,33.76
2023-09-12T13:06:20.855Z,33.72
2023-09-12T13:08:50.293Z,33.65
2023-09-12T13:11:19.053Z,33.77
2023-09-12T13:13:49.149Z,33.81
2023-09-12T13:16:17.980Z,33.82
2023-09-12T13:18:46.314Z,33.95
2023-09-12T13:21:14.677Z,34.01
2023-09-12T13:23:43.943Z,33.74
2023-09-12T13:26:12.228Z,33.31
2023-09-12T13:28:40.101Z,33.03
2023-09-12T13:31:07.994Z,32.85
2023-09-12T13:33:35.938Z,32.84
2023-09-12T13:36:03.728Z,33.01
2023-09-12T13:38:31.505Z,33.22
2023-09-12T13:41:00.605Z,33.38
2023-09-12T13:43:29.286Z,33.48
2023-09-12T13:45:57.168Z,33.44
2023-09-12T13:48:25.525Z,33.50
2023-09-12T13:50:53.290Z,33.47
2023-09-12T13:53:21.032Z,33.53
2023-09-12T13:55:49.343Z,33.61
2023-09-12T13:58:19.016Z,33.64
2023-09-12T14:00:46.833Z,33.72
2023-09-12T14:03:14.938Z,33.79
2023-09-12T14:05:43.433Z,33.83
2023-09-12T14:08:12.329Z,33.87
2023-09-12T14:10:40.752Z,33.84
2023-09-12T14:13:21.329Z,33.85
2023-09-12T14:15:52.438Z,33.82
2023-09-12T14:18:22.291Z,33.81
2023-09-12T14:20:53.720Z,33.82
2023-09-12T14:23:23.111Z,33.82
2023-09-12T14:25:51.475Z,33.85
2023-09-12T14:28:19.547Z,33.88
2023-09-12T14:30:47.601Z,33.91
2023-09-12T14:33:18.510Z,33.92
2023-09-12T14:35:46.851Z,33.98
2023-09-12T14:38:14.962Z,33.98
2023-09-12T14:40:45.476Z,33.80
2023-09-12T14:43:14.475Z,33.70
2023-09-12T14:45:42.686Z,33.42
2023-09-12T14:48:10.576Z,33.28
2023-09-12T14:50:43.550Z,33.21
2023-09-12T14:53:14.037Z,33.12
2023-09-12T14:55:42.027Z,33.07
2023-09-12T14:58:09.912Z,32.92
2023-09-12T15:00:39.066Z,32.73
2023-09-12T15:03:07.196Z,32.46
2023-09-12T15:05:35.147Z,32.19
2023-09-12T15:08:04.673Z,31.97
2023-09-12T15:10:32.777Z,31.73
2023-09-12T15:13:00.637Z,31.55
2023-09-12T15:15:28.824Z,31.30
2023-09-12T15:17:58.025Z,31.05
2023-09-12T15:20:25.818Z,30.86
2023-09-12T15:22:53.538Z,30.67
2023-09-12T15:25:22.663Z,30.48
2023-09-12T15:27:50.437Z,30.38
2023-09-12T15:30:18.414Z,30.30
2023-09-12T15:32:46.822Z,30.25
2023-09-12T15:35:14.600Z,30.12
2023-09-12T15:37:42.327Z,30.06
2023-09-12T15:40:11.333Z,30.02
2023-09-12T15:42:40.485Z,29.96
2023-09-12T15:45:11.026Z,29.89
2023-09-12T15:47:39.564Z,29.83
2023-09-12T15:50:08.378Z,29.75
2023-09-12T15:52:38.690Z,29.67
2023-09-12T15:55:07.214Z,29.59
2023-09-12T15:57:36.657Z,29.50
2023-09-12T16:00:07.865Z,29.43
2023-09-12T16:02:40.654Z,29.34
2023-09-12T16:05:09.813Z,29.22
2023-09-12T16:07:38.071Z,29.09
2023-09-12T16:10:08.793Z,28.98
2023-09-12T16:12:36.911Z,28.83
2023-09-12T16:15:08.012Z,28.73
2023-09-12T16:17:38.311Z,28.59
2023-09-12T16:20:09.692Z,28.49
2023-09-12T16:22:37.541Z,28.36
2023-09-12T16:25:06.014Z,28.21
2023-09-12T16:27:34.335Z,28.08
2023-09-12T16:30:04.015Z,27.94
2023-09-12T16:32:33.111Z,27.80
2023-09-12T16:35:01.516Z,27.70
2023-09-12T16:37:30.050Z,27.55
2023-09-12T16:39:58.244Z,27.41
2023-09-12T16:42:27.928Z,27.27
2023-09-12T16:44:55.677Z,27.16
2023-09-12T16:47:23.391Z,27.03
2023-09-12T16:49:52.465Z,26.93
2023-09-12T16:52:20.242Z,26.85
2023-09-12T16:54:48.035Z,26.74
2023-09-12T16:57:16.118Z,26.63
2023-09-12T16:59:44.331Z,26.55
2023-09-12T17:02:13.059Z,26.47
2023-09-12T17:04:43.679Z,26.36
2023-09-12T17:07:13.571Z,26.25
2023-09-12T17:09:41.932Z,26.15
2023-09-12T17:12:10.603Z,26.01
2023-09-12T17:14:38.378Z,25.93
2023-09-12T17:17:06.873Z,25.85
2023-09-12T17:19:34.618Z,25.77
2023-09-12T17:22:02.614Z,25.68
2023-09-12T17:24:31.746Z,25.58
2023-09-12T17:27:00.090Z,25.51
2023-09-12T17:29:27.826Z,25.43
2023-09-12T17:31:55.632Z,25.37
2023-09-12T17:34:41.014Z,25.30
2023-09-12T17:37:08.991Z,25.21
2023-09-12T17:39:38.748Z,25.14
2023-09-12T17:42:07.384Z,25.06
2023-09-12T17:44:35.317Z,24.98
2023-09-12T17:47:03.740Z,24.86
2023-09-12T17:49:33.838Z,24.77
2023-09-12T17:52:02.524Z,24.67
2023-09-12T17:54:30.451Z,24.56
2023-09-12T17:56:59.628Z,24.46
2023-09-12T17:59:27.917Z,24.37
2023-09-12T18:01:55.832Z,24.30
2023-09-12T18:04:23.836Z,24.22
2023-09-12T18:06:51.892Z,24.15
2023-09-12T18:09:19.926Z,24.08
2023-09-12T18:11:48.306Z,24.01
2023-09-12T18:14:17.980Z,23.94
2023-09-12T18:16:46.135Z,23.88
2023-09-12T18:19:14.602Z,23.82
2023-09-12T18:21:42.507Z,23.79
2023-09-12T18:24:10.292Z,23.75
2023-09-12T18:26:38.159Z,23.72
2023-09-12T18:29:06.370Z,23.71
2023-09-12T18:31:35.527Z,23.68
2023-09-12T18:34:03.484Z,23.65
2023-09-12T18:36:31.390Z,23.62
2023-09-12T18:38:59.167Z,23.60
2023-09-12T18:41:27.067Z,23.55
2023-09-12T18:43:54.981Z,23.49
2023-09-12T18:46:23.001Z,23.42
2023-09-12T18:48:52.353Z,23.34
2023-09-12T18:51:20.363Z,23.26
2023-09-12T18:53:48.111Z,23.18
2023-09-12T18:56:16.175Z,23.11
2023-09-12T18:58:44.599Z,23.03
2023-09-12T19:01:12.564Z,22.97
2023-09-12T19:03:41.698Z,22.88
2023-09-12T19:06:10.959Z,22.80
2023-09-12T19:08:41.792Z,22.75
2023-09-12T19:11:10.429Z,22.69
2023-09-12T19:13:38.285Z,22.62
2023-09-12T19:16:06.156Z,22.56
2023-09-12T19:18:33.993Z,22.50
2023-09-12T19:21:01.778Z,22.44
2023-09-12T19:23:30.857Z,22.38
2023-09-12T19:25:58.593Z,22.36
2023-09-12T19:28:26.339Z,22.30
2023-09-12T19:30:54.202Z,22.25
2023-09-12T19:33:22.088Z,22.20
2023-09-12T19:35:49.835Z,22.17
2023-09-12T19:38:17.582Z,22.14
2023-09-12T19:40:46.759Z,22.12
2023-09-12T19:43:14.549Z,22.10
2023-09-12T19:45:42.400Z,22.07
2023-09-12T19:48:12.388Z,22.04
2023-09-12T19:50:40.331Z,22.00
2023-09-12T19:53:08.103Z,21.98
2023-09-12T19:55:35.890Z,21.95
2023-09-12T19:58:05.412Z,21.91
2023-09-12T20:00:33.809Z,21.89
2023-09-12T20:03:01.636Z,21.85
2023-09-12T20:05:29.432Z,21.81
2023-09-12T20:07:57.259Z,21.78
2023-09-12T20:10:25.048Z,21.76
2023-09-12T20:12:53.003Z,21.72
2023-09-12T20:15:23.082Z,21.67
2023-09-12T20:17:52.723Z,21.60
2023-09-12T20:20:22.893Z,21.57
2023-09-12T20:22:51.019Z,21.53
2023-09-12T20:25:20.413Z,21.50
2023-09-12T20:27:48.416Z,21.48
2023-09-12T20:30:16.760Z,21.46
2023-09-12T20:32:57.756Z,21.44
2023-09-12T20:35:27.681Z,21.39
2023-09-12T20:37:56.950Z,21.37
2023-09-12T20:40:25.217Z,21.34
2023-09-12T20:42:53.036Z,21.32
2023-09-12T20:45:20.904Z,21.28
2023-09-12T20:47:50.404Z,21.26
2023-09-12T20:50:29.943Z,21.22
2023-09-12T20:53:00.183Z,21.17
2023-09-12T20:55:28.457Z,21.14
2023-09-12T20:57:56.236Z,21.11
2023-09-12T21:00:26.179Z,21.08
2023-09-12T21:02:55.522Z,21.08
2023-09-12T21:05:24.695Z,21.06
2023-09-12T21:07:53.121Z,21.03
2023-09-12T21:10:20.989Z,21.02
2023-09-12T21:12:48.768Z,20.99
2023-09-12T21:15:16.671Z,20.99
2023-09-12T21:17:44.435Z,20.95
2023-09-12T21:20:13.742Z,20.95
2023-09-12T21:22:41.493Z,20.93
2023-09-12T21:25:09.691Z,20.90
2023-09-12T21:27:37.987Z,20.88
2023-09-12T21:30:06.837Z,20.85
2023-09-12T21:32:34.822Z,20.82
2023-09-12T21:35:11.844Z,20.79
2023-09-12T21:37:40.918Z,20.74
2023-09-12T21:40:09.946Z,20.71
2023-09-12T21:42:37.949Z,20.67
2023-09-12T21:45:06.940Z,20.65
2023-09-12T21:47:39.334Z,20.64
2023-09-12T21:50:08.112Z,20.61
2023-09-12T21:52:36.276Z,20.61
2023-09-12T21:55:08.363Z,20.61
2023-09-12T21:57:36.901Z,20.61
2023-09-12T22:00:17.541Z,20.60
2023-09-12T22:02:46.017Z,20.61
2023-09-12T22:05:14.070Z,20.59
2023-09-12T22:07:41.830Z,20.59
2023-09-12T22:10:11.381Z,20.58
2023-09-12T22:12:39.640Z,20.57
2023-09-12T22:15:08.700Z,20.55
2023-09-12T22:17:36.719Z,20.54
2023-09-12T22:20:05.650Z,20.54
2023-09-12T22:22:33.757Z,20.54
2023-09-12T22:25:01.592Z,20.53
2023-09-12T22:27:30.960Z,20.53
2023-09-12T22:29:58.905Z,20.52
2023-09-12T22:32:26.616Z,20.53
2023-09-12T22:34:54.303Z,20.51
2023-09-12T22:37:22.036Z,20.48
2023-09-12T22:39:51.369Z,20.47
2023-09-12T22:42:19.305Z,20.46
2023-09-12T22:44:48.360Z,20.46
2023-09-12T22:47:16.455Z,20.45
2023-09-12T22:49:44.315Z,20.44
2023-09-12T22:52:12.549Z,20.42
2023-09-12T22:54:40.392Z,20.41
2023-09-12T22:57:08.498Z,20.41
2023-09-12T22:59:36.423Z,20.40
2023-09-12T23:02:05.961Z,20.39
2023-09-12T23:04:33.992Z,20.35
2023-09-12T23:07:03.485Z,20.32
2023-09-12T23:09:31.409Z,20.29
2023-09-12T23:11:59.289Z,20.27
2023-09-12T23:14:27.296Z,20.26
2023-09-12T23:16:55.090Z,20.25
2023-09-12T23:19:24.229Z,20.25
2023-09-12T23:21:51.970Z,20.24
2023-09-12T23:24:19.721Z,20.22
2023-09-12T23:26:47.450Z,20.21
2023-09-12T23:29:15.167Z,20.20
2023-09-12T23:31:43.326Z,20.18
2023-09-12T23:34:11.144Z,20.16
2023-09-12T23:36:40.307Z,20.16
2023-09-12T23:39:08.090Z,20.15
2023-09-12T23:41:35.891Z,20.14
2023-09-12T23:44:03.689Z,20.14
2023-09-12T23:46:31.766Z,20.12
2023-09-12T23:49:00.628Z,20.10
2023-09-12T23:51:28.616Z,20.10
2023-09-12T23:53:57.740Z,20.08
2023-09-12T23:56:25.739Z,20.08
2023-09-12T23:58:53.475Z,20.08
